sensor_id;sensor_type;location;lat;lon;timestamp;pressure;altitude;pressure_sealevel;temperature;humidity
12799;BME280;19250;42.646;26.980;2023-04-30T00:00:48;98709.16;;;10.54;73.25
12799;BME280;19250;42.646;26.980;2023-04-30T00:03:15;98709.47;;;9.51;80.31
12799;BME280;19250;42.646;26.980;2023-04-30T00:05:43;98705.75;;;9.36;83.63
12799;BME280;19250;42.646;26.980;2023-04-30T00:08:10;98711.66;;;8.96;89.62
12799;BME280;19250;42.646;26.980;2023-04-30T00:10:37;98703.66;;;9.90;83.67
12799;BME280;19250;42.646;26.980;2023-04-30T00:13:04;98703.06;;;10.12;79.62
12799;BME280;19250;42.646;26.980;2023-04-30T00:15:34;98691.13;;;10.40;76.67
12799;BME280;19250;42.646;26.980;2023-04-30T00:18:03;98691.47;;;10.61;74.83
12799;BME280;19250;42.646;26.980;2023-04-30T00:20:31;98690.97;;;10.50;75.69
12799;BME280;19250;42.646;26.980;2023-04-30T00:22:59;98691.47;;;10.61;74.92
12799;BME280;19250;42.646;26.980;2023-04-30T00:25:27;98689.00;;;10.52;75.02
12799;BME280;19250;42.646;26.980;2023-04-30T00:27:55;98683.06;;;10.00;76.74
12799;BME280;19250;42.646;26.980;2023-04-30T00:30:22;98690.41;;;10.06;78.77
12799;BME280;19250;42.646;26.980;2023-04-30T00:32:51;98687.81;;;10.30;75.52
12799;BME280;19250;42.646;26.980;2023-04-30T00:35:18;98685.47;;;10.35;74.27
12799;BME280;19250;42.646;26.980;2023-04-30T00:37:45;98689.00;;;10.52;73.13
12799;BME280;19250;42.646;26.980;2023-04-30T00:40:12;98688.47;;;10.64;72.05
12799;BME280;19250;42.646;26.980;2023-04-30T00:42:40;98689.50;;;10.87;69.50
12799;BME280;19250;42.646;26.980;2023-04-30T00:45:08;98682.50;;;10.95;67.81
12799;BME280;19250;42.646;26.980;2023-04-30T00:47:36;98680.94;;;11.08;66.87
12799;BME280;19250;42.646;26.980;2023-04-30T00:50:07;98682.44;;;11.19;66.44
12799;BME280;19250;42.646;26.980;2023-04-30T00:52:35;98682.97;;;10.90;68.25
12799;BME280;19250;42.646;26.980;2023-04-30T00:55:03;98678.47;;;10.90;68.70
12799;BME280;19250;42.646;26.980;2023-04-30T00:57:30;98675.47;;;11.02;68.02
12799;BME280;19250;42.646;26.980;2023-04-30T00:59:58;98673.47;;;10.96;67.54
12799;BME280;19250;42.646;26.980;2023-04-30T01:02:26;98682.31;;;10.96;68.48
12799;BME280;19250;42.646;26.980;2023-04-30T01:04:54;98677.44;;;11.16;67.12
12799;BME280;19250;42.646;26.980;2023-04-30T01:07:23;98682.84;;;10.51;70.45
12799;BME280;19250;42.646;26.980;2023-04-30T01:09:53;98686.84;;;10.63;70.38
12799;BME280;19250;42.646;26.980;2023-04-30T01:12:27;98680.97;;;10.44;70.00
12799;BME280;19250;42.646;26.980;2023-04-30T01:15:05;98677.16;;;10.54;70.34
12799;BME280;19250;42.646;26.980;2023-04-30T01:17:38;98678.50;;;10.66;69.26
12799;BME280;19250;42.646;26.980;2023-04-30T01:20:09;98677.66;;;10.82;68.25
12799;BME280;19250;42.646;26.980;2023-04-30T01:22:45;98677.31;;;10.93;67.16
12799;BME280;19250;42.646;26.980;2023-04-30T01:25:24;98670.47;;;10.90;67.61
12799;BME280;19250;42.646;26.980;2023-04-30T01:28:07;98675.66;;;10.35;72.66
12799;BME280;19250;42.646;26.980;2023-04-30T01:30:35;98657.16;;;10.50;71.06
12799;BME280;19250;42.646;26.980;2023-04-30T01:33:05;98666.19;;;10.57;70.71
12799;BME280;19250;42.646;26.980;2023-04-30T01:38:51;98667.84;;;10.66;69.70
12799;BME280;19250;42.646;26.980;2023-04-30T01:41:29;98641.50;;;10.55;69.41
12799;BME280;19250;42.646;26.980;2023-04-30T01:44:09;98654.16;;;10.61;68.54
12799;BME280;19250;42.646;26.980;2023-04-30T01:46:39;98671.00;;;10.54;69.97
12799;BME280;19250;42.646;26.980;2023-04-30T01:49:14;98666.81;;;10.27;71.10
12799;BME280;19250;42.646;26.980;2023-04-30T01:51:47;98667.34;;;10.55;70.17
12799;BME280;19250;42.646;26.980;2023-04-30T01:54:22;98674.19;;;10.57;69.30
12799;BME280;19250;42.646;26.980;2023-04-30T01:56:59;98670.97;;;10.21;71.58
12799;BME280;19250;42.646;26.980;2023-04-30T01:59:31;98670.47;;;10.34;71.75
12799;BME280;19250;42.646;26.980;2023-04-30T02:01:59;98674.41;;;10.06;75.21
12799;BME280;19250;42.646;26.980;2023-04-30T02:04:26;98669.47;;;10.43;72.49
12799;BME280;19250;42.646;26.980;2023-04-30T02:06:54;98669.66;;;10.50;72.19
12799;BME280;19250;42.646;26.980;2023-04-30T02:09:21;98658.16;;;10.49;71.72
12799;BME280;19250;42.646;26.980;2023-04-30T02:11:49;98674.34;;;10.48;71.68
12799;BME280;19250;42.646;26.980;2023-04-30T02:14:17;98672.81;;;10.61;71.30
12799;BME280;19250;42.646;26.980;2023-04-30T02:16:45;98668.50;;;10.68;70.60
12799;BME280;19250;42.646;26.980;2023-04-30T02:19:13;98666.50;;;10.54;70.38
12799;BME280;19250;42.646;26.980;2023-04-30T02:21:40;98665.81;;;10.44;71.42
12799;BME280;19250;42.646;26.980;2023-04-30T02:24:07;98672.81;;;10.29;73.12
12799;BME280;19250;42.646;26.980;2023-04-30T02:26:34;98663.47;;;10.17;73.68
12799;BME280;19250;42.646;26.980;2023-04-30T02:29:01;98662.50;;;10.18;73.29
12799;BME280;19250;42.646;26.980;2023-04-30T02:31:29;98652.34;;;10.29;73.07
12799;BME280;19250;42.646;26.980;2023-04-30T02:33:57;98646.50;;;10.34;71.98
12799;BME280;19250;42.646;26.980;2023-04-30T02:36:25;98659.63;;;10.27;72.48
12799;BME280;19250;42.646;26.980;2023-04-30T02:38:52;98655.16;;;10.28;72.74
12799;BME280;19250;42.646;26.980;2023-04-30T02:41:19;98660.47;;;10.28;72.43
12799;BME280;19250;42.646;26.980;2023-04-30T02:43:47;98659.31;;;10.30;72.39
12799;BME280;19250;42.646;26.980;2023-04-30T02:46:14;98650.84;;;10.27;72.45
12799;BME280;19250;42.646;26.980;2023-04-30T02:48:41;98650.84;;;10.27;72.36
12799;BME280;19250;42.646;26.980;2023-04-30T02:51:10;98652.50;;;10.36;71.89
12799;BME280;19250;42.646;26.980;2023-04-30T02:53:38;98648.84;;;10.21;72.63
12799;BME280;19250;42.646;26.980;2023-04-30T02:56:06;98654.09;;;9.47;79.37
12799;BME280;19250;42.646;26.980;2023-04-30T02:58:33;98651.38;;;9.80;78.41
12799;BME280;19250;42.646;26.980;2023-04-30T03:01:00;98658.47;;;10.14;76.42
12799;BME280;19250;42.646;26.980;2023-04-30T03:03:28;98661.44;;;10.11;76.69
12799;BME280;19250;42.646;26.980;2023-04-30T03:05:56;98651.09;;;10.08;76.40
12799;BME280;19250;42.646;26.980;2023-04-30T03:08:25;98653.59;;;10.01;76.05
12799;BME280;19250;42.646;26.980;2023-04-30T03:10:53;98649.09;;;10.10;77.07
12799;BME280;19250;42.646;26.980;2023-04-30T03:13:20;98651.81;;;10.26;76.50
12799;BME280;19250;42.646;26.980;2023-04-30T03:15:56;98645.81;;;10.16;76.68
12799;BME280;19250;42.646;26.980;2023-04-30T03:18:24;98649.16;;;9.60;80.64
12799;BME280;19250;42.646;26.980;2023-04-30T03:20:51;98653.19;;;9.72;81.15
12799;BME280;19250;42.646;26.980;2023-04-30T03:23:18;98651.06;;;9.83;80.50
12799;BME280;19250;42.646;26.980;2023-04-30T03:25:47;98656.94;;;9.53;83.46
12799;BME280;19250;42.646;26.980;2023-04-30T03:28:15;98663.91;;;10.04;80.74
12799;BME280;19250;42.646;26.980;2023-04-30T03:30:42;98660.31;;;10.21;78.30
12799;BME280;19250;42.646;26.980;2023-04-30T03:33:10;98666.13;;;10.17;77.98
12799;BME280;19250;42.646;26.980;2023-04-30T03:35:37;98674.00;;;10.43;77.07
12799;BME280;19250;42.646;26.980;2023-04-30T03:38:05;98675.00;;;10.42;76.37
12799;BME280;19250;42.646;26.980;2023-04-30T03:40:32;98680.94;;;10.27;79.23
12799;BME280;19250;42.646;26.980;2023-04-30T03:43:01;98678.00;;;10.55;77.55
12799;BME280;19250;42.646;26.980;2023-04-30T03:45:28;98680.84;;;10.69;75.91
12799;BME280;19250;42.646;26.980;2023-04-30T03:47:55;98685.31;;;10.53;77.61
12799;BME280;19250;42.646;26.980;2023-04-30T03:50:23;98691.84;;;10.66;75.31
12799;BME280;19250;42.646;26.980;2023-04-30T03:52:50;98672.16;;;10.43;76.62
12799;BME280;19250;42.646;26.980;2023-04-30T03:55:18;98682.66;;;10.93;73.60
12799;BME280;19250;42.646;26.980;2023-04-30T03:57:45;98688.78;;;11.18;71.65
12799;BME280;19250;42.646;26.980;2023-04-30T04:00:14;98686.13;;;10.37;74.18
12799;BME280;19250;42.646;26.980;2023-04-30T04:02:42;98688.63;;;10.22;77.32
12799;BME280;19250;42.646;26.980;2023-04-30T04:05:09;98695.66;;;10.72;75.09
12799;BME280;19250;42.646;26.980;2023-04-30T04:07:36;98695.81;;;10.70;74.94
12799;BME280;19250;42.646;26.980;2023-04-30T04:10:04;98701.50;;;10.75;74.14
12799;BME280;19250;42.646;26.980;2023-04-30T04:12:32;98704.78;;;9.79;81.66
12799;BME280;19250;42.646;26.980;2023-04-30T04:14:59;98706.47;;;9.46;86.54
12799;BME280;19250;42.646;26.980;2023-04-30T04:17:28;98696.66;;;9.80;85.42
12799;BME280;19250;42.646;26.980;2023-04-30T04:19:56;98693.72;;;9.58;87.04
12799;BME280;19250;42.646;26.980;2023-04-30T04:22:25;98696.22;;;10.09;85.71
12799;BME280;19250;42.646;26.980;2023-04-30T04:24:52;98692.31;;;10.54;79.75
12799;BME280;19250;42.646;26.980;2023-04-30T04:27:21;98691.31;;;10.87;76.23
12799;BME280;19250;42.646;26.980;2023-04-30T04:29:48;98690.81;;;10.83;74.54
12799;BME280;19250;42.646;26.980;2023-04-30T04:32:15;98690.97;;;10.98;74.98
12799;BME280;19250;42.646;26.980;2023-04-30T04:34:44;98695.53;;;11.53;71.70
12799;BME280;19250;42.646;26.980;2023-04-30T04:37:11;98693.75;;;12.15;66.49
12799;BME280;19250;42.646;26.980;2023-04-30T04:39:39;98698.34;;;12.51;63.03
12799;BME280;19250;42.646;26.980;2023-04-30T04:42:07;98685.91;;;11.82;64.44
12799;BME280;19250;42.646;26.980;2023-04-30T04:44:34;98701.59;;;11.30;68.84
12799;BME280;19250;42.646;26.980;2023-04-30T04:47:02;98695.31;;;10.91;71.40
12799;BME280;19250;42.646;26.980;2023-04-30T04:49:29;98691.94;;;11.21;70.76
12799;BME280;19250;42.646;26.980;2023-04-30T04:51:58;98701.06;;;11.43;69.51
12799;BME280;19250;42.646;26.980;2023-04-30T04:54:26;98684.66;;;12.01;65.60
12799;BME280;19250;42.646;26.980;2023-04-30T04:56:54;98695.41;;;12.46;62.41
12799;BME280;19250;42.646;26.980;2023-04-30T04:59:22;98698.47;;;12.35;61.38
12799;BME280;19250;42.646;26.980;2023-04-30T05:01:49;98703.16;;;11.64;66.01
12799;BME280;19250;42.646;26.980;2023-04-30T05:04:16;98703.75;;;12.21;64.75
12799;BME280;19250;42.646;26.980;2023-04-30T05:06:43;98702.03;;;12.73;62.19
12799;BME280;19250;42.646;26.980;2023-04-30T05:09:12;98705.69;;;13.18;59.72
12799;BME280;19250;42.646;26.980;2023-04-30T05:11:40;98711.34;;;13.52;58.22
12799;BME280;19250;42.646;26.980;2023-04-30T05:14:08;98705.72;;;13.61;58.51
12799;BME280;19250;42.646;26.980;2023-04-30T05:16:35;98718.00;;;13.71;57.81
12799;BME280;19250;42.646;26.980;2023-04-30T05:19:03;98705.69;;;13.76;57.87
12799;BME280;19250;42.646;26.980;2023-04-30T05:21:30;98707.56;;;13.76;59.28
12799;BME280;19250;42.646;26.980;2023-04-30T05:23:57;98709.84;;;13.20;61.72
12799;BME280;19250;42.646;26.980;2023-04-30T05:26:26;98714.22;;;13.65;60.13
12799;BME280;19250;42.646;26.980;2023-04-30T05:28:54;98700.81;;;14.30;58.21
12799;BME280;19250;42.646;26.980;2023-04-30T05:31:21;98708.59;;;14.40;56.12
12799;BME280;19250;42.646;26.980;2023-04-30T05:33:48;98706.16;;;14.45;56.47
12799;BME280;19250;42.646;26.980;2023-04-30T05:36:15;98709.78;;;14.37;56.49
12799;BME280;19250;42.646;26.980;2023-04-30T05:38:42;98703.78;;;14.99;56.57
12799;BME280;19250;42.646;26.980;2023-04-30T05:41:11;98703.03;;;16.01;53.35
12799;BME280;19250;42.646;26.980;2023-04-30T05:43:40;98706.16;;;16.05;52.92
12799;BME280;19250;42.646;26.980;2023-04-30T05:46:07;98711.63;;;16.38;51.92
12799;BME280;19250;42.646;26.980;2023-04-30T05:48:34;98701.03;;;16.23;52.36
12799;BME280;19250;42.646;26.980;2023-04-30T05:51:03;98705.72;;;16.01;53.83
12799;BME280;19250;42.646;26.980;2023-04-30T05:53:31;98705.13;;;16.60;52.72
12799;BME280;19250;42.646;26.980;2023-04-30T05:55:59;98708.25;;;16.96;51.48
12799;BME280;19250;42.646;26.980;2023-04-30T05:58:26;98697.06;;;17.06;49.15
12799;BME280;19250;42.646;26.980;2023-04-30T06:00:55;98705.16;;;17.12;47.55
12799;BME280;19250;42.646;26.980;2023-04-30T06:03:22;98707.44;;;17.09;46.85
12799;BME280;19250;42.646;26.980;2023-04-30T06:05:49;98706.81;;;17.13;46.43
12799;BME280;19250;42.646;26.980;2023-04-30T06:08:17;98711.97;;;17.61;45.89
12799;BME280;19250;42.646;26.980;2023-04-30T06:10:44;98708.88;;;16.78;46.56
12799;BME280;19250;42.646;26.980;2023-04-30T06:13:11;98716.34;;;17.09;46.36
12799;BME280;19250;42.646;26.980;2023-04-30T06:15:39;98721.06;;;16.74;45.18
12799;BME280;19250;42.646;26.980;2023-04-30T06:18:08;98709.69;;;16.92;45.80
12799;BME280;19250;42.646;26.980;2023-04-30T06:20:38;98709.81;;;16.45;46.08
12799;BME280;19250;42.646;26.980;2023-04-30T06:23:06;98708.50;;;16.27;46.36
12799;BME280;19250;42.646;26.980;2023-04-30T06:25:33;98711.84;;;15.89;46.97
12799;BME280;19250;42.646;26.980;2023-04-30T06:28:00;98713.81;;;16.62;45.82
12799;BME280;19250;42.646;26.980;2023-04-30T06:30:27;98712.19;;;17.20;44.35
12799;BME280;19250;42.646;26.980;2023-04-30T06:32:56;98711.66;;;17.95;41.85
12799;BME280;19250;42.646;26.980;2023-04-30T06:35:24;98709.72;;;18.22;40.12
12799;BME280;19250;42.646;26.980;2023-04-30T06:37:52;98709.69;;;16.92;41.25
12799;BME280;19250;42.646;26.980;2023-04-30T06:40:19;98709.31;;;17.21;40.92
12799;BME280;19250;42.646;26.980;2023-04-30T06:42:47;98706.19;;;17.11;42.38
12799;BME280;19250;42.646;26.980;2023-04-30T06:45:14;98709.69;;;17.51;42.36
12799;BME280;19250;42.646;26.980;2023-04-30T06:47:41;98715.91;;;17.52;41.71
12799;BME280;19250;42.646;26.980;2023-04-30T06:50:10;98714.44;;;16.77;42.58
12799;BME280;19250;42.646;26.980;2023-04-30T06:52:41;98710.75;;;16.17;44.16
12799;BME280;19250;42.646;26.980;2023-04-30T06:55:09;98712.84;;;15.81;45.39
12799;BME280;19250;42.646;26.980;2023-04-30T06:57:36;98716.22;;;15.90;45.10
12799;BME280;19250;42.646;26.980;2023-04-30T07:00:05;98647.88;;;15.71;44.40
12799;BME280;19250;42.646;26.980;2023-04-30T07:02:33;98713.09;;;15.52;45.90
12799;BME280;19250;42.646;26.980;2023-04-30T07:05:00;98715.94;;;15.78;46.44
12799;BME280;19250;42.646;26.980;2023-04-30T07:07:28;98627.72;;;15.19;45.45
12799;BME280;19250;42.646;26.980;2023-04-30T07:09:57;98719.56;;;15.64;45.77
12799;BME280;19250;42.646;26.980;2023-04-30T07:12:24;98709.44;;;16.00;46.28
12799;BME280;19250;42.646;26.980;2023-04-30T07:14:52;98692.78;;;16.31;45.47
12799;BME280;19250;42.646;26.980;2023-04-30T07:17:19;98710.94;;;16.90;43.29
12799;BME280;19250;42.646;26.980;2023-04-30T07:19:47;98710.53;;;16.86;44.41
12799;BME280;19250;42.646;26.980;2023-04-30T07:22:14;98710.53;;;17.19;44.84
12799;BME280;19250;42.646;26.980;2023-04-30T07:24:42;98710.53;;;16.99;44.49
12799;BME280;19250;42.646;26.980;2023-04-30T07:27:10;98711.78;;;16.90;46.13
12799;BME280;19250;42.646;26.980;2023-04-30T07:29:37;98715.72;;;17.07;45.97
12799;BME280;19250;42.646;26.980;2023-04-30T07:32:05;98712.78;;;17.48;45.11
12799;BME280;19250;42.646;26.980;2023-04-30T07:34:32;98720.84;;;17.74;44.46
12799;BME280;19250;42.646;26.980;2023-04-30T07:36:59;98710.53;;;17.45;43.23
12799;BME280;19250;42.646;26.980;2023-04-30T07:39:28;98714.13;;;18.03;43.55
12799;BME280;19250;42.646;26.980;2023-04-30T07:41:55;98710.66;;;18.40;41.60
12799;BME280;19250;42.646;26.980;2023-04-30T07:44:24;98718.72;;;18.03;41.09
12799;BME280;19250;42.646;26.980;2023-04-30T07:46:51;98713.09;;;19.11;41.15
12799;BME280;19250;42.646;26.980;2023-04-30T07:49:19;98713.28;;;19.16;38.83
12799;BME280;19250;42.646;26.980;2023-04-30T07:51:46;98701.72;;;18.78;39.62
12799;BME280;19250;42.646;26.980;2023-04-30T07:54:13;98718.53;;;18.42;42.36
12799;BME280;19250;42.646;26.980;2023-04-30T07:56:41;98702.81;;;18.70;42.65
12799;BME280;19250;42.646;26.980;2023-04-30T07:59:08;98713.34;;;18.40;40.98
12799;BME280;19250;42.646;26.980;2023-04-30T08:01:37;98713.34;;;18.40;39.61
12799;BME280;19250;42.646;26.980;2023-04-30T08:04:04;98718.22;;;18.19;39.68
12799;BME280;19250;42.646;26.980;2023-04-30T08:06:32;98717.00;;;18.90;38.76
12799;BME280;19250;42.646;26.980;2023-04-30T08:08:59;98712.56;;;19.02;39.93
12799;BME280;19250;42.646;26.980;2023-04-30T08:11:26;98717.84;;;18.91;40.19
12799;BME280;19250;42.646;26.980;2023-04-30T08:13:54;98716.72;;;19.73;40.11
12799;BME280;19250;42.646;26.980;2023-04-30T08:16:21;98713.44;;;19.21;39.84
12799;BME280;19250;42.646;26.980;2023-04-30T08:18:49;98715.44;;;18.32;42.48
12799;BME280;19250;42.646;26.980;2023-04-30T08:21:17;98709.41;;;18.50;42.66
12799;BME280;19250;42.646;26.980;2023-04-30T08:23:44;98707.00;;;18.97;41.00
12799;BME280;19250;42.646;26.980;2023-04-30T08:26:11;98703.00;;;18.37;40.48
12799;BME280;19250;42.646;26.980;2023-04-30T08:28:39;98699.28;;;18.70;39.82
12799;BME280;19250;42.646;26.980;2023-04-30T08:31:06;98687.78;;;18.50;40.99
12799;BME280;19250;42.646;26.980;2023-04-30T08:33:34;98698.34;;;18.89;39.13
12799;BME280;19250;42.646;26.980;2023-04-30T08:36:03;98696.47;;;19.14;38.96
12799;BME280;19250;42.646;26.980;2023-04-30T08:38:30;98705.72;;;19.25;37.66
12799;BME280;19250;42.646;26.980;2023-04-30T08:41:04;98693.44;;;20.08;36.35
12799;BME280;19250;42.646;26.980;2023-04-30T08:43:35;98709.22;;;20.11;35.52
12799;BME280;19250;42.646;26.980;2023-04-30T08:46:02;98704.28;;;19.72;37.28
12799;BME280;19250;42.646;26.980;2023-04-30T08:48:30;98694.00;;;20.46;35.19
12799;BME280;19250;42.646;26.980;2023-04-30T08:50:59;98701.13;;;20.11;34.69
12799;BME280;19250;42.646;26.980;2023-04-30T08:53:28;98698.03;;;20.07;36.79
12799;BME280;19250;42.646;26.980;2023-04-30T08:55:56;98684.91;;;20.41;36.69
12799;BME280;19250;42.646;26.980;2023-04-30T08:58:24;98696.91;;;20.63;36.30
12799;BME280;19250;42.646;26.980;2023-04-30T09:00:51;98704.97;;;20.81;35.70
12799;BME280;19250;42.646;26.980;2023-04-30T09:03:18;98695.72;;;20.59;36.97
12799;BME280;19250;42.646;26.980;2023-04-30T09:05:48;98692.59;;;19.28;38.32
12799;BME280;19250;42.646;26.980;2023-04-30T09:08:42;98695.94;;;18.99;39.61
12799;BME280;19250;42.646;26.980;2023-04-30T09:11:25;98682.25;;;18.69;40.75
12799;BME280;19250;42.646;26.980;2023-04-30T09:13:54;98675.41;;;19.47;40.22
12799;BME280;19250;42.646;26.980;2023-04-30T09:16:22;98684.19;;;19.79;39.70
12799;BME280;19250;42.646;26.980;2023-04-30T09:18:50;98667.06;;;19.67;37.98
12799;BME280;19250;42.646;26.980;2023-04-30T09:21:30;98687.16;;;19.78;37.99
12799;BME280;19250;42.646;26.980;2023-04-30T09:24:00;98687.19;;;19.53;39.26
12799;BME280;19250;42.646;26.980;2023-04-30T09:26:30;98669.69;;;19.31;39.16
12799;BME280;19250;42.646;26.980;2023-04-30T09:28:58;98666.34;;;19.35;40.03
12799;BME280;19250;42.646;26.980;2023-04-30T09:31:32;98665.31;;;20.09;38.26
12799;BME280;19250;42.646;26.980;2023-04-30T09:33:59;98659.88;;;20.09;37.26
12799;BME280;19250;42.646;26.980;2023-04-30T09:36:27;98658.50;;;20.66;37.70
12799;BME280;19250;42.646;26.980;2023-04-30T09:38:54;98657.06;;;21.05;36.24
12799;BME280;19250;42.646;26.980;2023-04-30T09:41:25;98629.19;;;19.85;37.44
12799;BME280;19250;42.646;26.980;2023-04-30T09:43:53;98660.34;;;20.06;38.95
12799;BME280;19250;42.646;26.980;2023-04-30T09:46:23;98651.63;;;20.04;37.71
12799;BME280;19250;42.646;26.980;2023-04-30T09:48:56;98610.41;;;19.54;38.30
12799;BME280;19250;42.646;26.980;2023-04-30T09:51:25;98652.53;;;19.98;38.94
12799;BME280;19250;42.646;26.980;2023-04-30T09:53:53;98648.31;;;20.20;37.81
12799;BME280;19250;42.646;26.980;2023-04-30T09:56:22;98649.25;;;20.44;38.37
12799;BME280;19250;42.646;26.980;2023-04-30T09:58:52;98656.97;;;21.35;36.40
12799;BME280;19250;42.646;26.980;2023-04-30T10:01:20;98658.75;;;20.17;37.06
12799;BME280;19250;42.646;26.980;2023-04-30T10:03:49;98648.50;;;20.67;36.79
12799;BME280;19250;42.646;26.980;2023-04-30T10:06:16;98651.16;;;21.08;36.33
12799;BME280;19250;42.646;26.980;2023-04-30T10:08:46;98636.53;;;21.79;35.66
12799;BME280;19250;42.646;26.980;2023-04-30T10:11:18;98640.50;;;23.51;32.78
12799;BME280;19250;42.646;26.980;2023-04-30T10:13:56;98637.53;;;22.41;32.39
12799;BME280;19250;42.646;26.980;2023-04-30T10:16:33;98630.97;;;22.25;34.04
12799;BME280;19250;42.646;26.980;2023-04-30T10:19:07;98647.75;;;21.59;36.24
12799;BME280;19250;42.646;26.980;2023-04-30T10:21:39;98631.91;;;20.33;38.28
12799;BME280;19250;42.646;26.980;2023-04-30T10:24:08;98640.13;;;20.68;37.74
12799;BME280;19250;42.646;26.980;2023-04-30T10:26:36;98642.84;;;21.33;36.74
12799;BME280;19250;42.646;26.980;2023-04-30T10:29:06;98641.31;;;21.37;37.28
12799;BME280;19250;42.646;26.980;2023-04-30T10:31:33;98632.66;;;22.26;35.95
12799;BME280;19250;42.646;26.980;2023-04-30T10:34:08;98634.38;;;22.04;35.38
12799;BME280;19250;42.646;26.980;2023-04-30T10:36:42;98634.88;;;23.24;34.36
12799;BME280;19250;42.646;26.980;2023-04-30T10:39:11;98630.59;;;22.33;33.85
12799;BME280;19250;42.646;26.980;2023-04-30T10:41:41;98630.94;;;22.82;34.54
12799;BME280;19250;42.646;26.980;2023-04-30T10:44:12;98628.50;;;25.24;31.40
12799;BME280;19250;42.646;26.980;2023-04-30T10:46:39;98609.28;;;23.58;32.46
12799;BME280;19250;42.646;26.980;2023-04-30T10:49:07;98589.84;;;22.78;34.49
12799;BME280;19250;42.646;26.980;2023-04-30T10:51:46;98629.19;;;23.80;33.30
12799;BME280;19250;42.646;26.980;2023-04-30T10:54:15;98592.41;;;24.00;32.53
12799;BME280;19250;42.646;26.980;2023-04-30T10:56:46;98633.25;;;24.00;32.29
12799;BME280;19250;42.646;26.980;2023-04-30T10:59:15;98604.00;;;23.90;31.81
12799;BME280;19250;42.646;26.980;2023-04-30T11:01:55;98628.00;;;26.31;28.34
12799;BME280;19250;42.646;26.980;2023-04-30T11:04:24;98626.84;;;25.60;28.12
12799;BME280;19250;42.646;26.980;2023-04-30T11:07:00;98629.09;;;24.94;28.99
12799;BME280;19250;42.646;26.980;2023-04-30T11:09:39;98625.31;;;26.46;27.95
12799;BME280;19250;42.646;26.980;2023-04-30T11:12:12;98625.41;;;26.96;27.74
12799;BME280;19250;42.646;26.980;2023-04-30T11:14:42;98622.25;;;28.48;25.45
12799;BME280;19250;42.646;26.980;2023-04-30T11:17:10;98594.00;;;28.47;24.41
12799;BME280;19250;42.646;26.980;2023-04-30T11:19:45;98633.75;;;27.91;25.94
12799;BME280;19250;42.646;26.980;2023-04-30T11:22:22;98633.34;;;27.08;26.55
12799;BME280;19250;42.646;26.980;2023-04-30T11:24:54;98632.72;;;27.72;26.26
12799;BME280;19250;42.646;26.980;2023-04-30T11:27:27;98624.38;;;28.61;24.71
12799;BME280;19250;42.646;26.980;2023-04-30T11:29:57;98611.69;;;27.22;26.14
12799;BME280;19250;42.646;26.980;2023-04-30T11:32:25;98629.84;;;29.91;23.76
12799;BME280;19250;42.646;26.980;2023-04-30T11:34:53;98608.97;;;29.38;23.98
12799;BME280;19250;42.646;26.980;2023-04-30T11:37:29;98616.09;;;29.39;23.92
12799;BME280;19250;42.646;26.980;2023-04-30T11:40:00;98617.72;;;27.39;25.74
12799;BME280;19250;42.646;26.980;2023-04-30T11:42:28;98621.69;;;25.58;28.40
12799;BME280;19250;42.646;26.980;2023-04-30T11:45:05;98602.03;;;25.24;29.28
12799;BME280;19250;42.646;26.980;2023-04-30T11:47:40;98611.66;;;26.56;27.69
12799;BME280;19250;42.646;26.980;2023-04-30T11:50:09;98621.69;;;25.58;27.98
12799;BME280;19250;42.646;26.980;2023-04-30T11:52:36;98611.88;;;25.62;28.24
12799;BME280;19250;42.646;26.980;2023-04-30T11:55:11;98579.16;;;25.77;27.29
12799;BME280;19250;42.646;26.980;2023-04-30T11:57:40;98612.00;;;23.20;31.81
12799;BME280;19250;42.646;26.980;2023-04-30T12:00:12;98575.28;;;24.04;30.73
12799;BME280;19250;42.646;26.980;2023-04-30T12:02:40;98578.31;;;23.43;32.26
12799;BME280;19250;42.646;26.980;2023-04-30T12:05:14;98593.22;;;24.80;30.04
12799;BME280;19250;42.646;26.980;2023-04-30T12:07:46;98598.13;;;26.09;28.50
12799;BME280;19250;42.646;26.980;2023-04-30T12:10:14;98605.88;;;25.65;27.87
12799;BME280;19250;42.646;26.980;2023-04-30T12:12:42;98588.00;;;26.10;27.99
12799;BME280;19250;42.646;26.980;2023-04-30T12:15:14;98594.19;;;27.08;26.92
12799;BME280;19250;42.646;26.980;2023-04-30T12:17:42;98595.44;;;28.40;25.74
12799;BME280;19250;42.646;26.980;2023-04-30T12:20:12;98598.75;;;28.32;24.73
12799;BME280;19250;42.646;26.980;2023-04-30T12:22:40;98597.91;;;27.82;26.74
12799;BME280;19250;42.646;26.980;2023-04-30T12:25:11;98604.38;;;25.48;28.76
12799;BME280;19250;42.646;26.980;2023-04-30T12:27:39;98601.00;;;24.13;30.82
12799;BME280;19250;42.646;26.980;2023-04-30T12:30:08;98601.13;;;23.80;30.32
12799;BME280;19250;42.646;26.980;2023-04-30T12:32:42;98599.75;;;23.77;31.32
12799;BME280;19250;42.646;26.980;2023-04-30T12:35:13;98581.72;;;23.16;31.17
12799;BME280;19250;42.646;26.980;2023-04-30T12:37:42;98592.72;;;23.81;31.01
12799;BME280;19250;42.646;26.980;2023-04-30T12:40:11;98587.56;;;24.55;30.48
12799;BME280;19250;42.646;26.980;2023-04-30T12:42:41;98590.00;;;24.57;30.75
12799;BME280;19250;42.646;26.980;2023-04-30T12:45:10;98576.88;;;25.17;29.72
12799;BME280;19250;42.646;26.980;2023-04-30T12:47:40;98570.38;;;26.68;28.41
12799;BME280;19250;42.646;26.980;2023-04-30T12:50:09;98572.41;;;26.00;30.06
12799;BME280;19250;42.646;26.980;2023-04-30T12:52:38;98575.53;;;24.51;32.70
12799;BME280;19250;42.646;26.980;2023-04-30T12:55:16;98574.78;;;23.85;34.89
12799;BME280;19250;42.646;26.980;2023-04-30T12:58:03;98573.78;;;22.76;36.22
12799;BME280;19250;42.646;26.980;2023-04-30T13:00:45;98582.91;;;22.70;37.11
12799;BME280;19250;42.646;26.980;2023-04-30T13:03:15;98588.72;;;22.17;37.84